sensor_id;sensor_type;location;lat;lon;timestamp;P1;durP1;ratioP1;P2;durP2;ratioP2
15958;SDS011;8078;47.822;9.402;2024-01-10T00:01:42;44.00;;;18.07;;
15958;SDS011;8078;47.822;9.402;2024-01-10T00:04:07;39.93;;;17.10;;
15958;SDS011;8078;47.822;9.402;2024-01-10T00:06:33;49.27;;;18.97;;
15958;SDS011;8078;47.822;9.402;2024-01-10T00:08:58;43.93;;;18.43;;
15958;SDS011;8078;47.822;9.402;2024-01-10T00:11:24;48.30;;;19.03;;
15958;SDS011;8078;47.822;9.402;2024-01-10T00:13:49;50.57;;;18.93;;
15958;SDS011;8078;47.822;9.402;2024-01-10T00:16:15;49.20;;;19.77;;
15958;SDS011;8078;47.822;9.402;2024-01-10T00:18:41;47.33;;;19.77;;
15958;SDS011;8078;47.822;9.402;2024-01-10T00:21:07;45.90;;;19.07;;
15958;SDS011;8078;47.822;9.402;2024-01-10T00:23:32;45.23;;;19.13;;
15958;SDS011;8078;47.822;9.402;2024-01-10T00:25:58;42.20;;;18.47;;
15958;SDS011;8078;47.822;9.402;2024-01-10T00:28:25;46.93;;;19.10;;
15958;SDS011;8078;47.822;9.402;2024-01-10T00:30:50;46.57;;;19.73;;
15958;SDS011;8078;47.822;9.402;2024-01-10T00:33:16;46.00;;;19.40;;
15958;SDS011;8078;47.822;9.402;2024-01-10T00:35:42;44.43;;;18.57;;
15958;SDS011;8078;47.822;9.402;2024-01-10T00:38:08;44.70;;;18.53;;
15958;SDS011;8078;47.822;9.402;2024-01-10T00:40:34;46.70;;;19.40;;
15958;SDS011;8078;47.822;9.402;2024-01-10T00:42:59;42.67;;;19.73;;
15958;SDS011;8078;47.822;9.402;2024-01-10T00:45:25;42.40;;;18.37;;
15958;SDS011;8078;47.822;9.402;2024-01-10T00:47:51;50.27;;;19.40;;
15958;SDS011;8078;47.822;9.402;2024-01-10T00:50:16;42.00;;;17.50;;
15958;SDS011;8078;47.822;9.402;2024-01-10T00:52:43;43.83;;;19.70;;
15958;SDS011;8078;47.822;9.402;2024-01-10T00:55:09;44.63;;;18.90;;
15958;SDS011;8078;47.822;9.402;2024-01-10T00:57:35;40.87;;;18.37;;
15958;SDS011;8078;47.822;9.402;2024-01-10T01:00:00;44.43;;;18.63;;
15958;SDS011;8078;47.822;9.402;2024-01-10T01:02:27;49.03;;;19.80;;
15958;SDS011;8078;47.822;9.402;2024-01-10T01:04:52;47.97;;;20.03;;
15958;SDS011;8078;47.822;9.402;2024-01-10T01:07:18;49.13;;;19.87;;
15958;SDS011;8078;47.822;9.402;2024-01-10T01:09:43;45.43;;;19.37;;
15958;SDS011;8078;47.822;9.402;2024-01-10T01:12:09;50.77;;;18.70;;
15958;SDS011;8078;47.822;9.402;2024-01-10T01:14:34;44.33;;;18.23;;
15958;SDS011;8078;47.822;9.402;2024-01-10T01:17:00;49.60;;;20.20;;
15958;SDS011;8078;47.822;9.402;2024-01-10T01:19:26;44.17;;;19.23;;
15958;SDS011;8078;47.822;9.402;2024-01-10T01:21:52;45.00;;;19.07;;
15958;SDS011;8078;47.822;9.402;2024-01-10T01:24:18;45.60;;;20.03;;
15958;SDS011;8078;47.822;9.402;2024-01-10T01:26:44;44.30;;;19.40;;
15958;SDS011;8078;47.822;9.402;2024-01-10T01:29:09;44.60;;;18.43;;
15958;SDS011;8078;47.822;9.402;2024-01-10T01:31:35;50.07;;;19.23;;
15958;SDS011;8078;47.822;9.402;2024-01-10T01:34:02;42.10;;;18.73;;
15958;SDS011;8078;47.822;9.402;2024-01-10T01:36:27;43.70;;;18.00;;
15958;SDS011;8078;47.822;9.402;2024-01-10T01:38:53;44.50;;;19.30;;
15958;SDS011;8078;47.822;9.402;2024-01-10T01:41:19;47.33;;;18.90;;
15958;SDS011;8078;47.822;9.402;2024-01-10T01:43:44;52.73;;;19.43;;
15958;SDS011;8078;47.822;9.402;2024-01-10T01:46:11;49.50;;;19.10;;
15958;SDS011;8078;47.822;9.402;2024-01-10T01:48:36;50.53;;;18.70;;
15958;SDS011;8078;47.822;9.402;2024-01-10T01:51:04;46.53;;;20.37;;
15958;SDS011;8078;47.822;9.402;2024-01-10T01:53:31;45.53;;;19.17;;
15958;SDS011;8078;47.822;9.402;2024-01-10T01:55:59;45.63;;;19.93;;
15958;SDS011;8078;47.822;9.402;2024-01-10T01:58:28;46.33;;;19.00;;
15958;SDS011;8078;47.822;9.402;2024-01-10T02:00:54;43.40;;;18.80;;
15958;SDS011;8078;47.822;9.402;2024-01-10T02:03:20;40.53;;;17.80;;
15958;SDS011;8078;47.822;9.402;2024-01-10T02:05:46;47.20;;;20.30;;
15958;SDS011;8078;47.822;9.402;2024-01-10T02:08:12;48.43;;;21.17;;
15958;SDS011;8078;47.822;9.402;2024-01-10T02:10:38;41.30;;;18.30;;
15958;SDS011;8078;47.822;9.402;2024-01-10T02:13:04;41.87;;;19.60;;
15958;SDS011;8078;47.822;9.402;2024-01-10T02:15:30;45.13;;;18.43;;
15958;SDS011;8078;47.822;9.402;2024-01-10T02:17:56;39.10;;;18.00;;
15958;SDS011;8078;47.822;9.402;2024-01-10T02:20:22;46.57;;;19.23;;
15958;SDS011;8078;47.822;9.402;2024-01-10T02:22:47;50.17;;;19.40;;
15958;SDS011;8078;47.822;9.402;2024-01-10T02:25:15;46.30;;;18.83;;
15958;SDS011;8078;47.822;9.402;2024-01-10T02:27:41;45.03;;;18.43;;
15958;SDS011;8078;47.822;9.402;2024-01-10T02:30:07;39.07;;;18.37;;
15958;SDS011;8078;47.822;9.402;2024-01-10T02:32:33;37.63;;;16.50;;
15958;SDS011;8078;47.822;9.402;2024-01-10T02:35:00;41.33;;;17.67;;
15958;SDS011;8078;47.822;9.402;2024-01-10T02:37:25;39.53;;;17.80;;
15958;SDS011;8078;47.822;9.402;2024-01-10T02:39:51;37.37;;;17.80;;
15958;SDS011;8078;47.822;9.402;2024-01-10T02:42:17;38.47;;;18.17;;
15958;SDS011;8078;47.822;9.402;2024-01-10T02:44:43;44.23;;;18.63;;
15958;SDS011;8078;47.822;9.402;2024-01-10T02:47:09;44.63;;;19.10;;
15958;SDS011;8078;47.822;9.402;2024-01-10T02:49:35;41.63;;;17.70;;
15958;SDS011;8078;47.822;9.402;2024-01-10T02:52:00;38.43;;;17.07;;
15958;SDS011;8078;47.822;9.402;2024-01-10T02:54:26;41.43;;;16.73;;
15958;SDS011;8078;47.822;9.402;2024-01-10T02:56:52;39.90;;;18.27;;
15958;SDS011;8078;47.822;9.402;2024-01-10T02:59:17;36.33;;;16.87;;
15958;SDS011;8078;47.822;9.402;2024-01-10T03:01:43;36.13;;;17.20;;
15958;SDS011;8078;47.822;9.402;2024-01-10T03:04:08;42.17;;;19.40;;
15958;SDS011;8078;47.822;9.402;2024-01-10T03:06:34;40.13;;;17.53;;
15958;SDS011;8078;47.822;9.402;2024-01-10T03:09:00;46.57;;;20.07;;
15958;SDS011;8078;47.822;9.402;2024-01-10T03:11:26;44.83;;;19.90;;
15958;SDS011;8078;47.822;9.402;2024-01-10T03:14:00;38.47;;;18.23;;
15958;SDS011;8078;47.822;9.402;2024-01-10T03:16:27;44.43;;;18.10;;
15958;SDS011;8078;47.822;9.402;2024-01-10T03:18:52;39.13;;;18.10;;
15958;SDS011;8078;47.822;9.402;2024-01-10T03:21:18;38.63;;;16.83;;
15958;SDS011;8078;47.822;9.402;2024-01-10T03:23:56;42.13;;;17.27;;
15958;SDS011;8078;47.822;9.402;2024-01-10T03:26:23;42.07;;;18.60;;
15958;SDS011;8078;47.822;9.402;2024-01-10T03:28:49;50.00;;;19.87;;
15958;SDS011;8078;47.822;9.402;2024-01-10T03:31:14;42.20;;;19.50;;
15958;SDS011;8078;47.822;9.402;2024-01-10T03:33:40;41.80;;;18.87;;
15958;SDS011;8078;47.822;9.402;2024-01-10T03:36:06;42.00;;;18.10;;
15958;SDS011;8078;47.822;9.402;2024-01-10T03:38:33;48.60;;;18.50;;
15958;SDS011;8078;47.822;9.402;2024-01-10T03:40:59;45.23;;;19.63;;
15958;SDS011;8078;47.822;9.402;2024-01-10T03:43:25;41.33;;;17.57;;
15958;SDS011;8078;47.822;9.402;2024-01-10T03:45:50;39.97;;;18.00;;
15958;SDS011;8078;47.822;9.402;2024-01-10T03:48:16;46.23;;;18.17;;
15958;SDS011;8078;47.822;9.402;2024-01-10T03:50:41;40.07;;;17.90;;
15958;SDS011;8078;47.822;9.402;2024-01-10T03:53:07;45.33;;;19.73;;
15958;SDS011;8078;47.822;9.402;2024-01-10T03:55:32;37.17;;;18.13;;
15958;SDS011;8078;47.822;9.402;2024-01-10T03:57:58;39.33;;;17.60;;
15958;SDS011;8078;47.822;9.402;2024-01-10T04:00:24;46.87;;;20.50;;
15958;SDS011;8078;47.822;9.402;2024-01-10T04:02:50;44.70;;;19.40;;
15958;SDS011;8078;47.822;9.402;2024-01-10T04:05:16;44.07;;;19.00;;
15958;SDS011;8078;47.822;9.402;2024-01-10T04:07:42;45.47;;;20.33;;
15958;SDS011;8078;47.822;9.402;2024-01-10T04:10:11;42.10;;;19.23;;
15958;SDS011;8078;47.822;9.402;2024-01-10T04:12:39;45.53;;;19.90;;
15958;SDS011;8078;47.822;9.402;2024-01-10T04:15:05;44.53;;;18.47;;
15958;SDS011;8078;47.822;9.402;2024-01-10T04:17:32;41.47;;;17.97;;
15958;SDS011;8078;47.822;9.402;2024-01-10T04:19:58;44.43;;;19.20;;
15958;SDS011;8078;47.822;9.402;2024-01-10T04:22:24;42.53;;;18.10;;
15958;SDS011;8078;47.822;9.402;2024-01-10T04:24:50;37.53;;;17.17;;
15958;SDS011;8078;47.822;9.402;2024-01-10T04:27:15;43.37;;;18.73;;
15958;SDS011;8078;47.822;9.402;2024-01-10T04:29:41;38.47;;;17.97;;
15958;SDS011;8078;47.822;9.402;2024-01-10T04:32:07;44.57;;;19.07;;
15958;SDS011;8078;47.822;9.402;2024-01-10T04:34:33;43.83;;;18.23;;
15958;SDS011;8078;47.822;9.402;2024-01-10T04:36:58;45.27;;;17.67;;
15958;SDS011;8078;47.822;9.402;2024-01-10T04:39:24;41.20;;;18.70;;
15958;SDS011;8078;47.822;9.402;2024-01-10T04:41:50;41.33;;;17.57;;
15958;SDS011;8078;47.822;9.402;2024-01-10T04:44:15;37.07;;;17.53;;
15958;SDS011;8078;47.822;9.402;2024-01-10T04:46:41;35.23;;;16.50;;
15958;SDS011;8078;47.822;9.402;2024-01-10T04:49:07;43.80;;;18.90;;
15958;SDS011;8078;47.822;9.402;2024-01-10T04:51:33;41.50;;;16.70;;
15958;SDS011;8078;47.822;9.402;2024-01-10T04:53:58;34.80;;;15.97;;
15958;SDS011;8078;47.822;9.402;2024-01-10T04:56:25;45.27;;;19.00;;
15958;SDS011;8078;47.822;9.402;2024-01-10T04:58:51;36.53;;;16.47;;
15958;SDS011;8078;47.822;9.402;2024-01-10T05:01:18;40.17;;;16.70;;
15958;SDS011;8078;47.822;9.402;2024-01-10T05:03:44;37.87;;;16.77;;
15958;SDS011;8078;47.822;9.402;2024-01-10T05:06:09;38.23;;;16.83;;
15958;SDS011;8078;47.822;9.402;2024-01-10T05:08:35;40.23;;;17.40;;
15958;SDS011;8078;47.822;9.402;2024-01-10T05:11:01;45.57;;;19.03;;
15958;SDS011;8078;47.822;9.402;2024-01-10T05:13:26;37.63;;;16.97;;
15958;SDS011;8078;47.822;9.402;2024-01-10T05:15:52;39.67;;;16.90;;
15958;SDS011;8078;47.822;9.402;2024-01-10T05:18:18;34.40;;;16.47;;
15958;SDS011;8078;47.822;9.402;2024-01-10T05:20:43;44.93;;;18.20;;
15958;SDS011;8078;47.822;9.402;2024-01-10T05:23:09;36.93;;;16.03;;
15958;SDS011;8078;47.822;9.402;2024-01-10T05:25:35;42.13;;;18.17;;
15958;SDS011;8078;47.822;9.402;2024-01-10T05:28:01;39.63;;;15.60;;
15958;SDS011;8078;47.822;9.402;2024-01-10T05:30:27;40.87;;;17.17;;
15958;SDS011;8078;47.822;9.402;2024-01-10T05:32:52;37.57;;;16.90;;
15958;SDS011;8078;47.822;9.402;2024-01-10T05:35:18;37.07;;;16.30;;
15958;SDS011;8078;47.822;9.402;2024-01-10T05:37:43;35.20;;;16.13;;
15958;SDS011;8078;47.822;9.402;2024-01-10T05:40:09;41.37;;;17.13;;
15958;SDS011;8078;47.822;9.402;2024-01-10T05:42:35;37.63;;;16.73;;
15958;SDS011;8078;47.822;9.402;2024-01-10T05:45:03;40.43;;;17.70;;
15958;SDS011;8078;47.822;9.402;2024-01-10T05:47:29;51.57;;;21.67;;
15958;SDS011;8078;47.822;9.402;2024-01-10T05:49:55;48.67;;;22.10;;
15958;SDS011;8078;47.822;9.402;2024-01-10T05:52:20;58.77;;;24.17;;
15958;SDS011;8078;47.822;9.402;2024-01-10T05:54:47;54.60;;;20.77;;
15958;SDS011;8078;47.822;9.402;2024-01-10T05:57:13;48.67;;;21.40;;
15958;SDS011;8078;47.822;9.402;2024-01-10T05:59:39;59.43;;;21.50;;
15958;SDS011;8078;47.822;9.402;2024-01-10T06:02:04;57.83;;;22.10;;
15958;SDS011;8078;47.822;9.402;2024-01-10T06:04:30;52.27;;;21.57;;
15958;SDS011;8078;47.822;9.402;2024-01-10T06:07:00;55.73;;;21.07;;
15958;SDS011;8078;47.822;9.402;2024-01-10T06:09:27;48.90;;;21.27;;
15958;SDS011;8078;47.822;9.402;2024-01-10T06:11:53;46.60;;;19.37;;
15958;SDS011;8078;47.822;9.402;2024-01-10T06:14:18;49.03;;;20.70;;
15958;SDS011;8078;47.822;9.402;2024-01-10T06:16:44;49.73;;;20.07;;
15958;SDS011;8078;47.822;9.402;2024-01-10T06:19:10;53.03;;;21.67;;
15958;SDS011;8078;47.822;9.402;2024-01-10T06:21:36;48.60;;;20.40;;
15958;SDS011;8078;47.822;9.402;2024-01-10T06:24:02;41.80;;;19.87;;
15958;SDS011;8078;47.822;9.402;2024-01-10T06:26:28;42.07;;;18.00;;
15958;SDS011;8078;47.822;9.402;2024-01-10T06:28:54;38.53;;;17.13;;
15958;SDS011;8078;47.822;9.402;2024-01-10T06:31:19;39.17;;;15.67;;
15958;SDS011;8078;47.822;9.402;2024-01-10T06:33:45;39.63;;;17.13;;
15958;SDS011;8078;47.822;9.402;2024-01-10T06:36:11;36.27;;;16.37;;
15958;SDS011;8078;47.822;9.402;2024-01-10T06:38:38;38.63;;;17.27;;
15958;SDS011;8078;47.822;9.402;2024-01-10T06:41:07;43.90;;;18.37;;
15958;SDS011;8078;47.822;9.402;2024-01-10T06:43:33;43.50;;;18.90;;
15958;SDS011;8078;47.822;9.402;2024-01-10T06:45:59;37.80;;;16.17;;
15958;SDS011;8078;47.822;9.402;2024-01-10T06:48:25;43.80;;;18.77;;
15958;SDS011;8078;47.822;9.402;2024-01-10T06:50:50;50.33;;;18.30;;
15958;SDS011;8078;47.822;9.402;2024-01-10T06:53:16;39.20;;;16.37;;
15958;SDS011;8078;47.822;9.402;2024-01-10T06:55:41;40.97;;;16.80;;
15958;SDS011;8078;47.822;9.402;2024-01-10T06:58:07;39.77;;;18.10;;
15958;SDS011;8078;47.822;9.402;2024-01-10T07:00:33;41.33;;;18.23;;
15958;SDS011;8078;47.822;9.402;2024-01-10T07:03:00;38.57;;;16.90;;
15958;SDS011;8078;47.822;9.402;2024-01-10T07:05:27;39.90;;;17.33;;
15958;SDS011;8078;47.822;9.402;2024-01-10T07:07:53;41.33;;;18.17;;
15958;SDS011;8078;47.822;9.402;2024-01-10T07:10:19;62.07;;;28.27;;
15958;SDS011;8078;47.822;9.402;2024-01-10T07:12:44;56.43;;;19.87;;
15958;SDS011;8078;47.822;9.402;2024-01-10T07:15:10;62.20;;;18.50;;
15958;SDS011;8078;47.822;9.402;2024-01-10T07:17:36;54.90;;;18.43;;
15958;SDS011;8078;47.822;9.402;2024-01-10T07:20:02;53.87;;;19.27;;
15958;SDS011;8078;47.822;9.402;2024-01-10T07:22:28;49.13;;;18.77;;
15958;SDS011;8078;47.822;9.402;2024-01-10T07:24:54;45.10;;;19.10;;
15958;SDS011;8078;47.822;9.402;2024-01-10T07:27:19;44.67;;;18.10;;
15958;SDS011;8078;47.822;9.402;2024-01-10T07:29:45;40.30;;;17.57;;
15958;SDS011;8078;47.822;9.402;2024-01-10T07:32:11;51.43;;;19.10;;
15958;SDS011;8078;47.822;9.402;2024-01-10T07:34:39;45.73;;;17.90;;
15958;SDS011;8078;47.822;9.402;2024-01-10T07:37:05;42.43;;;19.50;;
15958;SDS011;8078;47.822;9.402;2024-01-10T07:39:31;48.13;;;20.33;;
15958;SDS011;8078;47.822;9.402;2024-01-10T07:41:56;41.70;;;19.00;;
15958;SDS011;8078;47.822;9.402;2024-01-10T07:44:23;43.13;;;17.00;;
15958;SDS011;8078;47.822;9.402;2024-01-10T07:46:49;43.10;;;18.20;;
15958;SDS011;8078;47.822;9.402;2024-01-10T07:49:18;51.10;;;19.70;;
15958;SDS011;8078;47.822;9.402;2024-01-10T07:51:44;47.30;;;19.77;;
15958;SDS011;8078;47.822;9.402;2024-01-10T07:54:10;47.77;;;20.03;;
15958;SDS011;8078;47.822;9.402;2024-01-10T07:56:35;52.60;;;22.40;;
15958;SDS011;8078;47.822;9.402;2024-01-10T07:59:01;52.93;;;21.73;;
15958;SDS011;8078;47.822;9.402;2024-01-10T08:01:26;48.17;;;18.87;;
15958;SDS011;8078;47.822;9.402;2024-01-10T08:03:52;49.07;;;20.77;;
15958;SDS011;8078;47.822;9.402;2024-01-10T08:06:17;50.53;;;19.80;;
15958;SDS011;8078;47.822;9.402;2024-01-10T08:08:43;44.83;;;19.33;;
15958;SDS011;8078;47.822;9.402;2024-01-10T08:11:08;50.63;;;18.90;;
15958;SDS011;8078;47.822;9.402;2024-01-10T08:13:34;53.43;;;21.87;;
15958;SDS011;8078;47.822;9.402;2024-01-10T08:15:59;45.77;;;18.93;;
15958;SDS011;8078;47.822;9.402;2024-01-10T08:18:25;46.00;;;20.47;;
15958;SDS011;8078;47.822;9.402;2024-01-10T08:20:50;51.23;;;21.77;;
15958;SDS011;8078;47.822;9.402;2024-01-10T08:23:16;37.20;;;18.27;;
15958;SDS011;8078;47.822;9.402;2024-01-10T08:25:43;48.20;;;20.87;;
15958;SDS011;8078;47.822;9.402;2024-01-10T08:28:09;44.30;;;20.07;;
15958;SDS011;8078;47.822;9.402;2024-01-10T08:30:35;45.67;;;20.97;;
15958;SDS011;8078;47.822;9.402;2024-01-10T08:33:00;40.90;;;19.20;;
15958;SDS011;8078;47.822;9.402;2024-01-10T08:35:26;39.67;;;19.23;;
15958;SDS011;8078;47.822;9.402;2024-01-10T08:37:52;42.40;;;19.17;;
15958;SDS011;8078;47.822;9.402;2024-01-10T08:40:17;44.30;;;19.37;;
15958;SDS011;8078;47.822;9.402;2024-01-10T08:42:43;39.17;;;18.47;;
15958;SDS011;8078;47.822;9.402;2024-01-10T08:45:09;43.23;;;20.50;;
15958;SDS011;8078;47.822;9.402;2024-01-10T08:47:36;42.57;;;21.03;;
15958;SDS011;8078;47.822;9.402;2024-01-10T08:50:05;41.17;;;19.50;;
15958;SDS011;8078;47.822;9.402;2024-01-10T08:52:34;48.27;;;20.60;;
15958;SDS011;8078;47.822;9.402;2024-01-10T08:55:02;39.53;;;19.83;;
15958;SDS011;8078;47.822;9.402;2024-01-10T08:57:29;37.33;;;18.83;;
15958;SDS011;8078;47.822;9.402;2024-01-10T08:59:55;38.43;;;18.60;;
15958;SDS011;8078;47.822;9.402;2024-01-10T09:02:21;38.80;;;18.97;;
15958;SDS011;8078;47.822;9.402;2024-01-10T09:04:48;38.33;;;18.80;;
15958;SDS011;8078;47.822;9.402;2024-01-10T09:07:14;41.30;;;19.27;;
15958;SDS011;8078;47.822;9.402;2024-01-10T09:09:39;36.20;;;18.13;;
15958;SDS011;8078;47.822;9.402;2024-01-10T09:12:05;46.43;;;18.20;;
15958;SDS011;8078;47.822;9.402;2024-01-10T09:14:31;47.63;;;19.33;;
15958;SDS011;8078;47.822;9.402;2024-01-10T09:16:56;39.37;;;19.10;;
15958;SDS011;8078;47.822;9.402;2024-01-10T09:19:23;41.73;;;19.37;;
15958;SDS011;8078;47.822;9.402;2024-01-10T09:21:49;39.07;;;20.37;;
15958;SDS011;8078;47.822;9.402;2024-01-10T09:24:15;38.77;;;19.40;;
15958;SDS011;8078;47.822;9.402;2024-01-10T09:26:41;38.10;;;18.77;;
15958;SDS011;8078;47.822;9.402;2024-01-10T09:29:09;45.63;;;20.83;;
15958;SDS011;8078;47.822;9.402;2024-01-10T09:31:34;38.63;;;19.13;;
15958;SDS011;8078;47.822;9.402;2024-01-10T09:34:00;45.87;;;20.43;;
15958;SDS011;8078;47.822;9.402;2024-01-10T09:36:25;52.27;;;20.77;;
15958;SDS011;8078;47.822;9.402;2024-01-10T09:38:51;47.00;;;20.90;;
15958;SDS011;8078;47.822;9.402;2024-01-10T09:41:16;48.07;;;20.67;;
15958;SDS011;8078;47.822;9.402;2024-01-10T09:43:43;42.27;;;20.30;;
15958;SDS011;8078;47.822;9.402;2024-01-10T09:46:09;48.00;;;19.67;;
15958;SDS011;8078;47.822;9.402;2024-01-10T09:48:35;52.17;;;21.03;;
15958;SDS011;8078;47.822;9.402;2024-01-10T09:51:01;41.57;;;20.30;;
15958;SDS011;8078;47.822;9.402;2024-01-10T09:53:26;48.53;;;20.87;;
15958;SDS011;8078;47.822;9.402;2024-01-10T09:55:52;45.70;;;20.63;;
15958;SDS011;8078;47.822;9.402;2024-01-10T09:58:25;39.00;;;20.90;;
15958;SDS011;8078;47.822;9.402;2024-01-10T10:00:51;68.60;;;19.70;;
15958;SDS011;8078;47.822;9.402;2024-01-10T10:03:18;49.73;;;19.20;;
15958;SDS011;8078;47.822;9.402;2024-01-10T10:05:44;62.30;;;18.37;;
15958;SDS011;8078;47.822;9.402;2024-01-10T10:08:11;62.17;;;19.77;;
15958;SDS011;8078;47.822;9.402;2024-01-10T10:10:39;45.30;;;18.03;;
15958;SDS011;8078;47.822;9.402;2024-01-10T10:13:09;84.90;;;19.83;;
15958;SDS011;8078;47.822;9.402;2024-01-10T10:15:37;51.73;;;20.43;;
15958;SDS011;8078;47.822;9.402;2024-01-10T10:18:03;49.13;;;19.97;;
15958;SDS011;8078;47.822;9.402;2024-01-10T10:20:29;39.57;;;19.93;;
15958;SDS011;8078;47.822;9.402;2024-01-10T10:23:01;36.77;;;18.67;;
15958;SDS011;8078;47.822;9.402;2024-01-10T10:25:31;34.67;;;18.47;;
15958;SDS011;8078;47.822;9.402;2024-01-10T10:27:59;38.37;;;19.60;;
15958;SDS011;8078;47.822;9.402;2024-01-10T10:30:27;34.77;;;17.80;;
15958;SDS011;8078;47.822;9.402;2024-01-10T10:32:53;35.93;;;18.17;;
15958;SDS011;8078;47.822;9.402;2024-01-10T10:35:22;32.63;;;16.33;;
15958;SDS011;8078;47.822;9.402;2024-01-10T10:37:51;35.70;;;18.30;;
15958;SDS011;8078;47.822;9.402;2024-01-10T10:40:18;30.13;;;17.57;;
15958;SDS011;8078;47.822;9.402;2024-01-10T10:42:54;31.97;;;17.17;;
15958;SDS011;8078;47.822;9.402;2024-01-10T10:45:24;28.17;;;16.73;;
15958;SDS011;8078;47.822;9.402;2024-01-10T10:47:56;33.30;;;17.37;;
15958;SDS011;8078;47.822;9.402;2024-01-10T10:50:24;31.57;;;17.53;;
15958;SDS011;8078;47.822;9.402;2024-01-10T10:52:52;39.13;;;18.70;;
15958;SDS011;8078;47.822;9.402;2024-01-10T10:55:21;30.93;;;17.73;;
15958;SDS011;8078;47.822;9.402;2024-01-10T10:57:49;28.73;;;16.43;;
15958;SDS011;8078;47.822;9.402;2024-01-10T11:00:15;28.10;;;16.33;;
15958;SDS011;8078;47.822;9.402;2024-01-10T11:02:45;36.63;;;16.20;;
15958;SDS011;8078;47.822;9.402;2024-01-10T11:05:11;29.30;;;16.90;;
15958;SDS011;8078;47.822;9.402;2024-01-10T11:07:40;26.80;;;15.73;;
15958;SDS011;8078;47.822;9.402;2024-01-10T11:10:11;55.20;;;16.50;;
15958;SDS011;8078;47.822;9.402;2024-01-10T11:15:56;33.80;;;15.97;;
15958;SDS011;8078;47.822;9.402;2024-01-10T11:23:50;99.17;;;18.33;;
15958;SDS011;8078;47.822;9.402;2024-01-10T11:26:19;27.67;;;17.07;;
15958;SDS011;8078;47.822;9.402;2024-01-10T11:28:45;75.00;;;19.17;;
15958;SDS011;8078;47.822;9.402;2024-01-10T11:31:12;29.57;;;17.97;;
15958;SDS011;8078;47.822;9.402;2024-01-10T11:33:40;29.10;;;16.57;;
15958;SDS011;8078;47.822;9.402;2024-01-10T11:36:17;31.73;;;18.37;;
15958;SDS011;8078;47.822;9.402;2024-01-10T11:46:40;47.17;;;16.90;;
15958;SDS011;8078;47.822;9.402;2024-01-10T11:49:09;27.13;;;16.63;;
15958;SDS011;8078;47.822;9.402;2024-01-10T11:51:37;70.07;;;17.93;;
15958;SDS011;8078;47.822;9.402;2024-01-10T11:54:02;46.50;;;19.90;;
15958;SDS011;8078;47.822;9.402;2024-01-10T11:56:37;34.83;;;20.17;;
15958;SDS011;8078;47.822;9.402;2024-01-10T11:59:09;37.20;;;21.07;;
15958;SDS011;8078;47.822;9.402;2024-01-10T12:01:40;33.93;;;19.93;;
15958;SDS011;8078;47.822;9.402;2024-01-10T12:04:06;33.70;;;19.67;;
15958;SDS011;8078;47.822;9.402;2024-01-10T12:06:35;31.43;;;17.00;;
15958;SDS011;8078;47.822;9.402;2024-01-10T12:09:01;38.87;;;17.20;;
15958;SDS011;8078;47.822;9.402;2024-01-10T12:11:39;30.13;;;15.77;;
15958;SDS011;8078;47.822;9.402;2024-01-10T12:14:05;26.63;;;15.60;;
15958;SDS011;8078;47.822;9.402;2024-01-10T12:16:34;32.57;;;15.67;;
15958;SDS011;8078;47.822;9.402;2024-01-10T12:19:00;25.93;;;14.73;;
15958;SDS011;8078;47.822;9.402;2024-01-10T12:21:26;24.17;;;15.13;;
15958;SDS011;8078;47.822;9.402;2024-01-10T12:23:51;23.47;;;14.20;;
15958;SDS011;8078;47.822;9.402;2024-01-10T12:26:18;27.43;;;14.87;;
15958;SDS011;8078;47.822;9.402;2024-01-10T12:28:53;21.50;;;13.03;;
15958;SDS011;8078;47.822;9.402;2024-01-10T12:31:23;24.17;;;13.93;;
15958;SDS011;8078;47.822;9.402;2024-01-10T12:33:54;26.73;;;14.10;;
15958;SDS011;8078;47.822;9.402;2024-01-10T12:36:20;35.10;;;15.13;;
15958;SDS011;8078;47.822;9.402;2024-01-10T12:38:46;25.83;;;15.17;;
15958;SDS011;8078;47.822;9.402;2024-01-10T12:41:12;26.80;;;15.80;;
15958;SDS011;8078;47.822;9.402;2024-01-10T12:43:40;26.43;;;15.97;;
15958;SDS011;8078;47.822;9.402;2024-01-10T12:46:06;27.03;;;16.47;;
15958;SDS011;8078;47.822;9.402;2024-01-10T12:48:33;27.80;;;16.10;;
15958;SDS011;8078;47.822;9.402;2024-01-10T12:51:02;31.13;;;17.47;;
15958;SDS011;8078;47.822;9.402;2024-01-10T12:53:38;35.37;;;17.30;;
15958;SDS011;8078;47.822;9.402;2024-01-10T12:56:06;34.43;;;18.03;;
15958;SDS011;8078;47.822;9.402;2024-01-10T12:58:33;29.50;;;16.57;;
15958;SDS011;8078;47.822;9.402;2024-01-10T13:01:01;28.80;;;15.97;;
15958;SDS011;8078;47.822;9.402;2024-01-10T13:03:28;28.73;;;15.73;;
15958;SDS011;8078;47.822;9.402;2024-01-10T13:05:54;28.47;;;16.07;;
15958;SDS011;8078;47.822;9.402;2024-01-10T13:08:19;30.97;;;14.90;;
15958;SDS011;8078;47.822;9.402;2024-01-10T13:10:45;46.30;;;14.40;;
15958;SDS011;8078;47.822;9.402;2024-01-10T13:13:12;36.83;;;13.67;;
15958;SDS011;8078;47.822;9.402;2024-01-10T13:15:38;90.17;;;13.27;;
15958;SDS011;8078;47.822;9.402;2024-01-10T13:18:04;97.10;;;14.17;;
15958;SDS011;8078;47.822;9.402;2024-01-10T13:20:29;107.13;;;13.10;;
15958;SDS011;8078;47.822;9.402;2024-01-10T13:22:55;86.73;;;14.63;;
15958;SDS011;8078;47.822;9.402;2024-01-10T13:25:20;83.67;;;16.17;;
15958;SDS011;8078;47.822;9.402;2024-01-10T13:27:50;48.27;;;14.80;;
15958;SDS011;8078;47.822;9.402;2024-01-10T13:30:16;112.50;;;17.17;;
15958;SDS011;8078;47.822;9.402;2024-01-10T13:32:42;70.07;;;15.73;;
15958;SDS011;8078;47.822;9.402;2024-01-10T13:35:08;134.57;;;17.27;;
15958;SDS011;8078;47.822;9.402;2024-01-10T13:37:34;119.40;;;17.80;;
15958;SDS011;8078;47.822;9.402;2024-01-10T13:39:59;37.87;;;15.43;;
15958;SDS011;8078;47.822;9.402;2024-01-10T13:42:25;28.23;;;14.13;;
15958;SDS011;8078;47.822;9.402;2024-01-10T13:44:50;87.80;;;15.50;;
15958;SDS011;8078;47.822;9.402;2024-01-10T13:47:19;87.47;;;15.87;;
15958;SDS011;8078;47.822;9.402;2024-01-10T13:49:48;24.97;;;13.73;;
15958;SDS011;8078;47.822;9.402;2024-01-10T13:52:14;28.83;;;14.67;;
15958;SDS011;8078;47.822;9.402;2024-01-10T13:54:39;43.93;;;14.37;;
15958;SDS011;8078;47.822;9.402;2024-01-10T13:57:05;56.93;;;14.73;;
15958;SDS011;8078;47.822;9.402;2024-01-10T13:59:30;60.63;;;13.40;;
15958;SDS011;8078;47.822;9.402;2024-01-10T14:01:56;36.47;;;13.53;;
15958;SDS011;8078;47.822;9.402;2024-01-10T14:04:24;34.80;;;14.03;;
15958;SDS011;8078;47.822;9.402;2024-01-10T14:06:50;93.77;;;15.23;;
15958;SDS011;8078;47.822;9.402;2024-01-10T14:09:15;71.80;;;13.67;;
15958;SDS011;8078;47.822;9.402;2024-01-10T14:11:42;94.23;;;14.53;;
15958;SDS011;8078;47.822;9.402;2024-01-10T14:14:09;67.03;;;13.77;;
15958;SDS011;8078;47.822;9.402;2024-01-10T14:16:35;127.47;;;13.33;;
15958;SDS011;8078;47.822;9.402;2024-01-10T14:19:00;72.17;;;12.27;;
15958;SDS011;8078;47.822;9.402;2024-01-10T14:21:26;141.40;;;14.00;;
15958;SDS011;8078;47.822;9.402;2024-01-10T14:23:52;116.07;;;14.90;;
15958;SDS011;8078;47.822;9.402;2024-01-10T14:26:17;134.17;;;16.23;;
15958;SDS011;8078;47.822;9.402;2024-01-10T14:28:43;198.40;;;17.83;;
15958;SDS011;8078;47.822;9.402;2024-01-10T14:31:08;142.20;;;16.23;;
15958;SDS011;8078;47.822;9.402;2024-01-10T14:33:38;82.73;;;13.50;;
15958;SDS011;8078;47.822;9.402;2024-01-10T14:36:04;47.13;;;12.07;;
15958;SDS011;8078;47.822;9.402;2024-01-10T14:38:30;113.50;;;15.80;;
15958;SDS011;8078;47.822;9.402;2024-01-10T14:40:56;136.30;;;16.50;;
15958;SDS011;8078;47.822;9.402;2024-01-10T14:43:21;170.90;;;17.60;;
15958;SDS011;8078;47.822;9.402;2024-01-10T14:45:47;129.20;;;15.77;;